Terminal Aerodrome Forecast
Issued by NWS

Home | Current Version | Previous Version | Text Only | Print | Product List | Glossary On
Versions: 1 2 3 4 5 6 7 8 9 10 11 12 13 14 15 16
448
FTUS42 TJSJ 281141
TAFIST
TAF
TIST 281141Z 2812/2912 11005KT P6SM FEW020
     FM281300 18007KT P6SM -SHRA FEW030 FEW050
     FM281630 19010KT P6SM VCTS SCT025CB BKN040
     FM282300 VRB05KT P6SM SCT030=

USA.gov is the U.S. government's official web portal to all federal, state and local government web resources and services.